Terminal Aerodrome Forecast
Issued by NWS

Home | Current Version | Previous Version | Text Only | Print | Product List | Glossary On
Versions: 1 2 3 4 5 6 7 8 9 10 11 12 13 14 15 16 17 18 19 20 21 22 23 24 25 26
421
FTUS43 KGRR 191137
TAFJXN
TAF
KJXN 191137Z 1912/2012 24007KT P6SM OVC007
     FM191400 20004KT 5SM BR OVC008
     FM191700 18004KT P6SM OVC009
     FM192000 17005KT P6SM OVC100
     FM200400 11004KT 4SM BR OVC015
     FM200900 09005KT 2SM -RA BR OVC007=

USA.gov is the U.S. government's official web portal to all federal, state and local government web resources and services.